createdAt,value
2018-07-14T00:04:07.953Z,69.60
2018-07-14T00:06:37.322Z,69.40
2018-07-14T00:09:07.348Z,69.30
2018-07-14T00:11:36.637Z,69.30
2018-07-14T00:14:05.796Z,68.90
2018-07-14T00:16:34.990Z,69.00
2018-07-14T00:19:04.291Z,69.70
2018-07-14T00:21:33.593Z,69.50
2018-07-14T00:24:02.916Z,69.90
2018-07-14T00:26:32.133Z,70.40
2018-07-14T00:29:01.450Z,69.60
2018-07-14T00:31:30.542Z,70.00
2018-07-14T00:33:59.910Z,69.80
2018-07-14T00:36:29.154Z,69.80
2018-07-14T00:38:58.454Z,69.60
2018-07-14T00:41:27.519Z,69.60
2018-07-14T00:43:56.577Z,69.50
2018-07-14T00:46:25.634Z,69.70
2018-07-14T00:48:54.689Z,69.50
2018-07-14T00:51:23.882Z,69.90
2018-07-14T00:53:53.040Z,69.90
2018-07-14T00:56:22.215Z,70.20
2018-07-14T00:58:51.190Z,70.10
2018-07-14T01:03:48.962Z,70.50
2018-07-14T01:06:18.606Z,71.00
2018-07-14T01:08:47.801Z,70.40
2018-07-14T01:11:16.902Z,70.70
2018-07-14T01:13:46.023Z,70.70
2018-07-14T01:16:15.165Z,70.60
2018-07-14T01:18:44.292Z,70.60
2018-07-14T01:21:13.369Z,70.60
2018-07-14T01:23:42.444Z,71.00
2018-07-14T01:26:11.448Z,71.10
2018-07-14T01:28:40.675Z,71.70
2018-07-14T01:31:09.967Z,71.00
2018-07-14T01:33:39.149Z,71.10
2018-07-14T01:36:08.297Z,71.20
2018-07-14T01:38:37.410Z,71.10
2018-07-14T01:41:06.627Z,71.30
2018-07-14T01:43:35.875Z,71.60
2018-07-14T01:46:05.038Z,71.60
2018-07-14T01:48:34.261Z,72.10
2018-07-14T01:51:03.332Z,71.90
2018-07-14T01:53:32.355Z,71.90
2018-07-14T01:56:01.490Z,72.00
2018-07-14T01:58:31.046Z,72.20
2018-07-14T02:01:00.152Z,72.30
2018-07-14T02:03:29.173Z,73.10
2018-07-14T02:05:58.215Z,72.40
2018-07-14T02:08:27.432Z,72.80
2018-07-14T02:10:56.618Z,72.70
2018-07-14T02:13:25.849Z,74.10
2018-07-14T02:15:54.861Z,73.60
2018-07-14T02:18:23.878Z,73.60
2018-07-14T02:20:53.116Z,73.40
2018-07-14T02:23:22.561Z,74.00
2018-07-14T02:25:51.924Z,73.70
2018-07-14T02:28:21.021Z,73.50
2018-07-14T02:30:50.118Z,73.70
2018-07-14T02:33:19.197Z,73.60
2018-07-14T02:35:48.249Z,73.70
2018-07-14T02:38:17.359Z,73.80
2018-07-14T02:40:46.426Z,73.70
2018-07-14T02:43:15.511Z,73.70
2018-07-14T02:45:44.955Z,73.60
2018-07-14T02:48:14.102Z,73.80
2018-07-14T02:50:43.218Z,73.80
2018-07-14T02:53:12.246Z,74.00
2018-07-14T02:55:41.501Z,74.30
2018-07-14T02:58:10.746Z,74.50
2018-07-14T03:00:40.047Z,76.50
2018-07-14T03:03:09.271Z,76.00
2018-07-14T03:05:38.397Z,75.50
2018-07-14T03:08:07.538Z,76.00
2018-07-14T03:10:36.763Z,76.60
2018-07-14T03:13:06.240Z,76.70
2018-07-14T03:15:35.431Z,76.70
2018-07-14T03:18:04.725Z,76.30
2018-07-14T03:20:33.841Z,76.30
2018-07-14T03:23:03.194Z,76.10
2018-07-14T03:25:32.463Z,76.10
2018-07-14T03:28:01.634Z,75.90
2018-07-14T03:30:30.654Z,75.50
2018-07-14T03:32:59.675Z,75.20
2018-07-14T03:35:28.842Z,75.10
2018-07-14T03:37:57.876Z,75.10
2018-07-14T03:40:26.951Z,75.10
2018-07-14T03:42:56.193Z,75.20
2018-07-14T03:45:25.529Z,75.20
2018-07-14T03:47:54.702Z,75.20
2018-07-14T03:50:23.773Z,75.20
2018-07-14T03:52:53.680Z,75.40
2018-07-14T03:55:23.073Z,75.20
2018-07-14T03:57:52.129Z,76.40
2018-07-14T04:00:21.379Z,75.70
2018-07-14T04:02:53.607Z,75.30
2018-07-14T04:05:22.905Z,75.00
2018-07-14T04:07:59.370Z,74.70
2018-07-14T04:10:28.827Z,75.30
2018-07-14T04:12:58.057Z,74.70
2018-07-14T04:15:27.304Z,75.40
2018-07-14T04:18:05.536Z,74.50
2018-07-14T04:20:36.715Z,76.10
2018-07-14T04:23:05.801Z,74.90
2018-07-14T04:25:34.947Z,75.00
2018-07-14T04:28:04.164Z,74.90
2018-07-14T04:30:33.468Z,74.60
2018-07-14T04:33:02.479Z,75.40
2018-07-14T04:35:31.707Z,74.60
2018-07-14T04:38:00.951Z,77.80
2018-07-14T04:40:30.230Z,75.60
2018-07-14T04:43:00.105Z,75.00
2018-07-14T04:45:29.460Z,74.10
2018-07-14T04:47:58.737Z,74.70
2018-07-14T04:50:28.005Z,75.50
2018-07-14T04:52:57.437Z,74.00
2018-07-14T04:55:26.627Z,73.90
2018-07-14T04:57:55.799Z,73.80
2018-07-14T05:00:25.279Z,73.50
2018-07-14T05:02:55.544Z,73.90
2018-07-14T05:05:24.715Z,73.00
2018-07-14T05:10:24.776Z,72.40
2018-07-14T05:12:54.117Z,72.30
2018-07-14T05:15:23.591Z,72.10
2018-07-14T05:17:53.742Z,72.00
2018-07-14T05:20:23.054Z,71.80
2018-07-14T05:22:52.400Z,71.00
2018-07-14T05:25:21.546Z,70.50
2018-07-14T05:27:50.698Z,70.20
2018-07-14T05:30:19.901Z,70.20
2018-07-14T05:32:49.179Z,70.60
2018-07-14T05:35:18.410Z,70.40
2018-07-14T05:37:48.481Z,69.30
2018-07-14T05:40:17.549Z,69.40
2018-07-14T05:42:47.442Z,68.70
2018-07-14T05:45:16.693Z,68.60
2018-07-14T05:47:45.950Z,68.60
2018-07-14T05:50:15.321Z,68.30
2018-07-14T05:52:46.833Z,68.30
2018-07-14T05:55:17.928Z,68.00
2018-07-14T05:57:47.327Z,67.60
2018-07-14T06:00:16.565Z,67.20
2018-07-14T06:02:46.079Z,67.40
2018-07-14T06:05:15.478Z,67.40
2018-07-14T06:07:44.589Z,67.00
2018-07-14T06:10:13.986Z,66.60
2018-07-14T06:15:12.960Z,66.90
2018-07-14T06:17:42.263Z,66.40
2018-07-14T06:20:11.757Z,66.50
2018-07-14T06:22:41.094Z,65.80
2018-07-14T06:25:10.203Z,65.30
2018-07-14T06:27:39.443Z,65.80
2018-07-14T06:30:08.956Z,65.00
2018-07-14T06:32:38.331Z,64.80
2018-07-14T06:35:07.385Z,62.80
2018-07-14T06:37:36.482Z,63.90
2018-07-14T06:40:06.022Z,61.70
2018-07-14T06:42:35.846Z,61.20
2018-07-14T06:45:05.132Z,61.40
2018-07-14T06:47:34.418Z,60.90
2018-07-14T06:50:03.930Z,59.50
2018-07-14T06:52:33.210Z,58.70
2018-07-14T06:55:02.390Z,58.20
2018-07-14T06:57:31.659Z,59.10
2018-07-14T07:00:00.826Z,57.40
2018-07-14T07:02:30.081Z,57.30
2018-07-14T07:04:59.322Z,56.90
2018-07-14T07:07:28.448Z,56.30
2018-07-14T07:09:57.685Z,54.40
2018-07-14T07:12:27.081Z,53.90
2018-07-14T07:14:56.353Z,53.10
2018-07-14T07:17:25.640Z,52.90
2018-07-14T07:19:54.945Z,52.10
2018-07-14T07:22:24.201Z,51.30
2018-07-14T07:24:53.498Z,49.90
2018-07-14T07:27:22.654Z,48.10
2018-07-14T07:29:51.738Z,46.20
2018-07-14T07:32:20.914Z,44.90
2018-07-14T07:34:49.935Z,43.70
2018-07-14T07:37:19.004Z,41.90
2018-07-14T07:39:48.485Z,40.10
2018-07-14T07:42:17.651Z,39.50
2018-07-14T07:44:46.697Z,40.00
2018-07-14T07:47:15.983Z,38.40
2018-07-14T07:49:45.227Z,37.20
2018-07-14T07:52:14.352Z,36.10
2018-07-14T07:54:43.685Z,36.10
2018-07-14T07:57:13.041Z,34.60
2018-07-14T07:59:45.014Z,33.40
2018-07-14T08:02:15.813Z,32.80
2018-07-14T08:04:45.467Z,34.40
2018-07-14T08:07:14.766Z,32.30
2018-07-14T08:09:44.838Z,31.50
2018-07-14T08:12:17.162Z,31.70
2018-07-14T08:14:48.980Z,32.90
2018-07-14T08:17:20.740Z,34.10
2018-07-14T08:19:50.620Z,33.70
2018-07-14T08:22:20.026Z,30.20
2018-07-14T08:24:49.286Z,30.70
2018-07-14T08:27:18.442Z,29.40
2018-07-14T08:29:47.717Z,29.10
2018-07-14T08:32:16.904Z,28.70
2018-07-14T08:34:46.076Z,28.10
2018-07-14T08:37:15.142Z,28.90
2018-07-14T08:39:44.358Z,29.10
2018-07-14T08:42:19.092Z,28.60
2018-07-14T08:44:50.646Z,29.00
2018-07-14T08:47:19.793Z,28.20
2018-07-14T08:50:14.471Z,27.90
2018-07-14T08:52:44.245Z,27.80
2018-07-14T08:55:14.411Z,26.30
2018-07-14T08:57:44.732Z,28.20
2018-07-14T09:00:15.033Z,28.20
2018-07-14T09:02:53.630Z,27.70
2018-07-14T09:05:26.745Z,28.50
2018-07-14T09:07:59.779Z,28.50
2018-07-14T09:10:29.335Z,28.80
2018-07-14T09:13:02.391Z,27.30
2018-07-14T09:15:34.122Z,27.50
2018-07-14T09:18:03.528Z,27.70
2018-07-14T09:20:33.348Z,27.80
2018-07-14T09:23:05.163Z,28.50
2018-07-14T09:25:37.703Z,28.40
2018-07-14T09:28:07.517Z,27.50
2018-07-14T09:30:37.597Z,27.80
2018-07-14T09:33:07.808Z,28.00
2018-07-14T09:35:45.568Z,27.70
2018-07-14T10:15:31.429Z,26.80
2018-07-14T10:18:27.047Z,26.90
2018-07-14T10:21:34.758Z,25.60
2018-07-14T10:24:29.885Z,26.00
2018-07-14T10:32:56.952Z,25.50
2018-07-14T10:35:26.571Z,25.80
2018-07-14T10:37:56.278Z,25.80
2018-07-14T10:40:25.555Z,25.70
2018-07-14T10:42:54.744Z,25.70
2018-07-14T10:45:23.949Z,26.30
2018-07-14T10:47:53.345Z,25.50
2018-07-14T10:50:22.691Z,25.80
2018-07-14T10:52:51.945Z,26.50
2018-07-14T10:55:21.091Z,26.20
2018-07-14T10:57:50.226Z,25.60
2018-07-14T11:00:33.886Z,25.90
2018-07-14T11:12:33.611Z,24.70
2018-07-14T11:15:02.984Z,27.30
2018-07-14T11:17:32.431Z,26.70
2018-07-14T11:20:01.999Z,26.90
2018-07-14T11:22:31.404Z,25.40
2018-07-14T11:25:00.880Z,25.90
2018-07-14T11:27:30.309Z,24.70
2018-07-14T11:30:00.250Z,25.10
2018-07-14T11:32:31.688Z,23.70
2018-07-14T11:35:01.272Z,23.90
2018-07-14T11:37:31.827Z,24.10
2018-07-14T11:40:02.979Z,23.90
2018-07-14T11:42:32.639Z,24.70
2018-07-14T11:45:02.798Z,24.30
2018-07-14T11:47:33.059Z,24.20
2018-07-14T11:50:02.524Z,23.80
2018-07-14T11:52:32.139Z,24.70
2018-07-14T11:55:05.674Z,24.10
2018-07-14T11:57:35.511Z,25.30
2018-07-14T12:00:04.777Z,25.60
2018-07-14T12:02:34.069Z,26.00
2018-07-14T12:05:03.416Z,27.20
2018-07-14T12:07:32.738Z,28.30
2018-07-14T12:10:01.979Z,29.10
2018-07-14T12:12:31.245Z,29.80
2018-07-14T12:15:00.593Z,31.20
2018-07-14T12:17:29.773Z,31.60
2018-07-14T12:19:59.318Z,32.50
2018-07-14T12:22:28.616Z,33.30
2018-07-14T12:24:57.995Z,34.10
2018-07-14T12:27:27.277Z,34.80
2018-07-14T12:29:56.620Z,35.30
2018-07-14T12:32:26.120Z,35.30
2018-07-14T12:34:56.573Z,34.70
2018-07-14T12:37:25.922Z,34.50
2018-07-14T12:39:55.109Z,34.10
2018-07-14T12:42:24.446Z,32.40
2018-07-14T12:44:53.617Z,31.00
2018-07-14T12:47:23.779Z,30.50
2018-07-14T12:49:53.025Z,31.60
2018-07-14T12:52:22.280Z,31.60
2018-07-14T12:54:51.454Z,31.60
2018-07-14T12:57:20.634Z,32.60
2018-07-14T12:59:50.027Z,33.40
2018-07-14T13:02:19.198Z,32.00
2018-07-14T13:04:48.399Z,29.00
2018-07-14T13:07:17.627Z,27.20
2018-07-14T13:09:47.052Z,27.50
2018-07-14T13:12:16.165Z,28.10
2018-07-14T13:14:45.446Z,28.00
2018-07-14T13:17:14.709Z,27.30
2018-07-14T13:19:43.807Z,27.80
2018-07-14T13:22:13.853Z,28.40
2018-07-14T13:24:43.196Z,28.40
2018-07-14T13:27:12.563Z,28.10
2018-07-14T13:29:41.904Z,28.60
2018-07-14T13:32:11.121Z,28.20
2018-07-14T13:34:40.405Z,28.40
2018-07-14T13:37:09.750Z,29.20
2018-07-14T13:39:38.997Z,29.90
2018-07-14T13:42:08.182Z,28.60
2018-07-14T13:44:37.489Z,29.20
2018-07-14T13:47:07.063Z,29.20
2018-07-14T13:49:36.297Z,32.50
2018-07-14T13:52:05.560Z,34.30
2018-07-14T13:54:34.961Z,35.60
2018-07-14T13:57:04.259Z,36.10
2018-07-14T13:59:33.545Z,36.50
2018-07-14T14:02:02.819Z,35.80
2018-07-14T14:04:32.119Z,37.10
2018-07-14T14:07:01.353Z,37.70
2018-07-14T14:09:30.605Z,38.40
2018-07-14T14:11:59.710Z,39.40
2018-07-14T14:14:28.879Z,38.60
2018-07-14T14:16:58.308Z,39.60
2018-07-14T14:19:27.625Z,39.00
2018-07-14T14:21:56.874Z,37.50
2018-07-14T14:24:26.124Z,37.70
2018-07-14T14:26:55.355Z,36.30
2018-07-14T14:29:24.605Z,37.30
2018-07-14T14:31:54.111Z,36.70
2018-07-14T14:34:23.333Z,36.00
2018-07-14T14:36:52.561Z,36.70
2018-07-14T14:39:21.919Z,37.50
2018-07-14T14:41:51.149Z,38.90
2018-07-14T14:44:20.498Z,40.60
2018-07-14T14:46:49.773Z,41.60
2018-07-14T14:49:19.085Z,42.30
2018-07-14T14:51:48.667Z,43.60
2018-07-14T14:54:18.056Z,43.20
2018-07-14T14:56:47.380Z,44.10
2018-07-14T14:59:16.854Z,43.80
2018-07-14T15:01:46.089Z,44.20
2018-07-14T15:04:15.391Z,44.00
2018-07-14T15:06:44.725Z,43.90
2018-07-14T15:09:14.051Z,44.60
2018-07-14T15:11:43.328Z,43.30
2018-07-14T15:14:12.597Z,42.00
2018-07-14T15:16:41.905Z,42.20
2018-07-14T15:19:11.152Z,43.30
2018-07-14T15:21:40.443Z,44.10
2018-07-14T15:24:09.689Z,43.60
2018-07-14T15:26:38.879Z,44.10
2018-07-14T15:29:08.497Z,45.10
2018-07-14T15:31:37.771Z,45.20
2018-07-14T15:34:07.434Z,46.00
2018-07-14T15:36:36.751Z,46.50
2018-07-14T15:39:07.411Z,46.20
2018-07-14T15:41:38.566Z,47.10
2018-07-14T15:44:12.713Z,47.80
2018-07-14T15:46:45.781Z,48.10
2018-07-14T15:49:15.125Z,48.20
2018-07-14T15:51:44.997Z,48.00
2018-07-14T15:54:18.197Z,48.50
2018-07-14T15:59:32.517Z,50.60
2018-07-14T16:02:01.767Z,49.70
2018-07-14T16:04:32.073Z,50.00
2018-07-14T16:07:01.378Z,49.40
2018-07-14T16:09:30.550Z,49.20
2018-07-14T16:11:59.778Z,49.40
2018-07-14T16:14:28.886Z,49.30
2018-07-14T16:16:58.164Z,49.10
2018-07-14T16:19:27.415Z,47.20
2018-07-14T16:21:57.275Z,46.90
2018-07-14T16:24:26.609Z,47.60
2018-07-14T16:26:55.918Z,47.70
2018-07-14T16:29:25.370Z,47.70
2018-07-14T16:31:54.501Z,47.70
2018-07-14T16:34:23.707Z,47.70
2018-07-14T16:36:53.142Z,47.70
2018-07-14T16:39:22.364Z,48.20
2018-07-14T16:41:51.664Z,48.00
2018-07-14T16:44:21.050Z,48.20
2018-07-14T16:46:50.217Z,48.70
2018-07-14T16:49:19.508Z,48.60
2018-07-14T16:51:48.677Z,48.80
2018-07-14T16:54:18.005Z,49.10
2018-07-14T16:56:47.346Z,49.70
2018-07-14T16:59:16.740Z,50.30
2018-07-14T17:01:46.108Z,51.60
2018-07-14T17:04:15.474Z,51.50
2018-07-14T17:06:44.743Z,51.10
2018-07-14T17:09:13.904Z,51.20
2018-07-14T17:11:43.146Z,51.40
2018-07-14T17:14:12.846Z,51.80
2018-07-14T17:16:42.627Z,51.50
2018-07-14T17:19:11.943Z,51.80
2018-07-14T17:21:41.233Z,51.40
2018-07-14T17:24:10.528Z,51.70
2018-07-14T17:26:39.750Z,52.40
2018-07-14T17:29:09.062Z,51.90
2018-07-14T17:31:38.318Z,50.10
2018-07-14T17:34:07.460Z,52.10
2018-07-14T17:36:36.837Z,52.50
2018-07-14T17:39:07.837Z,53.60
2018-07-14T17:41:37.069Z,54.60
2018-07-14T17:44:06.362Z,54.80
2018-07-14T17:46:35.457Z,55.00
2018-07-14T17:49:04.739Z,53.40
2018-07-14T17:51:34.047Z,53.40
2018-07-14T17:54:03.919Z,53.80
2018-07-14T17:56:33.189Z,53.80
2018-07-14T17:59:02.577Z,54.40
2018-07-14T18:01:31.781Z,54.70
2018-07-14T18:04:01.000Z,55.70
2018-07-14T18:06:30.162Z,56.10
2018-07-14T18:08:59.422Z,56.40
2018-07-14T18:11:28.650Z,56.70
2018-07-14T18:13:58.050Z,57.00
2018-07-14T18:16:27.382Z,57.20
2018-07-14T18:18:56.665Z,57.90
2018-07-14T18:21:26.101Z,58.20
2018-07-14T18:23:55.837Z,58.80
2018-07-14T18:26:24.961Z,59.20
2018-07-14T18:28:54.740Z,59.80
2018-07-14T18:31:24.022Z,60.40
2018-07-14T18:33:53.311Z,60.70
2018-07-14T18:36:22.564Z,61.00
2018-07-14T18:38:51.861Z,61.20
2018-07-14T18:41:21.097Z,61.40
2018-07-14T18:43:50.364Z,61.30
2018-07-14T18:46:19.649Z,61.20
2018-07-14T18:48:48.930Z,61.50
2018-07-14T18:51:18.172Z,61.70
2018-07-14T18:53:47.494Z,63.00
2018-07-14T18:56:16.814Z,64.00
2018-07-14T18:58:46.173Z,64.20
2018-07-14T19:01:15.570Z,64.70
2018-07-14T19:03:44.838Z,64.70
2018-07-14T19:06:14.142Z,65.20
2018-07-14T19:08:43.470Z,65.30
2018-07-14T19:11:12.774Z,66.10
2018-07-14T19:13:42.003Z,65.70
2018-07-14T19:16:11.321Z,65.70
2018-07-14T19:18:40.643Z,65.90
2018-07-14T19:21:10.069Z,66.00
2018-07-14T19:23:39.570Z,66.40
2018-07-14T19:26:09.134Z,66.60
2018-07-14T19:28:38.229Z,66.70
2018-07-14T19:31:07.530Z,66.80
2018-07-14T19:33:36.810Z,67.00
2018-07-14T19:36:06.048Z,67.10
2018-07-14T19:38:35.193Z,67.30
2018-07-14T19:41:05.537Z,67.50
2018-07-14T19:43:34.837Z,67.40
2018-07-14T19:46:04.095Z,67.50
2018-07-14T19:48:33.437Z,67.50
2018-07-14T19:51:02.836Z,67.70
2018-07-14T19:53:32.260Z,67.90
2018-07-14T19:56:01.642Z,68.00
2018-07-14T19:58:30.863Z,68.10
2018-07-14T20:01:00.087Z,68.10
2018-07-14T20:03:29.338Z,68.40
2018-07-14T20:05:58.559Z,68.40
2018-07-14T20:08:27.885Z,68.80
2018-07-14T20:10:57.219Z,69.10
2018-07-14T20:13:26.389Z,69.20
2018-07-14T20:15:55.559Z,69.70
2018-07-14T20:18:24.826Z,69.70
2018-07-14T20:20:54.059Z,69.70
2018-07-14T20:23:23.295Z,69.60
2018-07-14T20:25:52.599Z,69.60
2018-07-14T20:28:21.836Z,69.50
2018-07-14T20:30:51.285Z,69.80
2018-07-14T20:33:20.500Z,70.00
2018-07-14T20:35:49.563Z,70.00
2018-07-14T20:38:18.788Z,70.10
2018-07-14T20:40:48.032Z,70.50
2018-07-14T20:43:17.449Z,70.80
2018-07-14T20:45:46.729Z,71.90
2018-07-14T20:48:15.830Z,71.50
2018-07-14T20:50:44.901Z,70.90
2018-07-14T20:53:14.190Z,71.30
2018-07-14T20:55:43.994Z,72.50
2018-07-14T20:58:13.341Z,72.80
2018-07-14T21:00:42.501Z,73.10
2018-07-14T21:03:11.873Z,73.30
2018-07-14T21:05:41.033Z,73.50
2018-07-14T21:08:10.138Z,73.70
2018-07-14T21:10:39.375Z,73.80
2018-07-14T21:13:08.589Z,74.20
2018-07-14T21:15:37.896Z,74.50
2018-07-14T21:18:07.586Z,74.50
2018-07-14T21:20:36.932Z,74.50
2018-07-14T21:23:06.229Z,74.50
2018-07-14T21:25:35.543Z,74.70
2018-07-14T21:28:04.801Z,74.80
2018-07-14T21:30:34.134Z,74.50
2018-07-14T21:33:03.553Z,74.00
2018-07-14T21:35:32.710Z,73.70
2018-07-14T21:38:02.034Z,72.90
2018-07-14T21:40:31.246Z,72.30
2018-07-14T21:43:00.497Z,72.40
2018-07-14T21:45:29.762Z,71.60
2018-07-14T21:47:59.111Z,70.90
2018-07-14T21:50:28.445Z,70.60
2018-07-14T21:52:57.645Z,69.70
2018-07-14T21:55:26.825Z,69.20
2018-07-14T21:57:56.130Z,69.30
2018-07-14T22:00:31.051Z,68.90
2018-07-14T22:03:00.629Z,68.50
2018-07-14T22:05:30.547Z,69.40
2018-07-14T22:07:59.851Z,68.90
2018-07-14T22:10:29.129Z,68.50
2018-07-14T22:12:58.335Z,68.20
2018-07-14T22:15:27.354Z,68.90
2018-07-14T22:17:56.748Z,68.60
2018-07-14T22:20:26.301Z,70.30
2018-07-14T22:22:55.549Z,68.50
2018-07-14T22:25:24.970Z,68.30
2018-07-14T22:27:54.242Z,68.30
2018-07-14T22:30:23.449Z,68.70
2018-07-14T22:32:52.755Z,69.10
2018-07-14T22:35:22.046Z,69.30
2018-07-14T22:37:51.366Z,69.10
2018-07-14T22:40:20.497Z,69.00
2018-07-14T22:42:49.738Z,69.10
2018-07-14T22:45:18.967Z,69.00
2018-07-14T22:47:48.272Z,69.20
2018-07-14T22:50:17.627Z,69.20
2018-07-14T22:52:46.915Z,69.60
2018-07-14T22:55:16.354Z,69.40
2018-07-14T22:57:45.674Z,69.70
2018-07-14T23:00:15.026Z,69.60
2018-07-14T23:02:45.046Z,68.90
2018-07-14T23:05:14.198Z,68.80
2018-07-14T23:07:43.618Z,68.40
2018-07-14T23:10:12.910Z,68.60
2018-07-14T23:12:42.144Z,69.20
2018-07-14T23:15:11.468Z,68.60
2018-07-14T23:17:40.666Z,68.60
2018-07-14T23:20:10.030Z,68.30
2018-07-14T23:22:39.179Z,68.20
2018-07-14T23:25:08.378Z,68.10
2018-07-14T23:27:37.607Z,68.20
2018-07-14T23:30:07.215Z,68.20
2018-07-14T23:32:36.653Z,68.20
2018-07-14T23:35:08.881Z,68.40
2018-07-14T23:37:38.094Z,68.60
2018-07-14T23:40:07.515Z,68.70
2018-07-14T23:42:36.889Z,69.30
2018-07-14T23:45:06.234Z,69.50
2018-07-14T23:47:35.636Z,70.40
2018-07-14T23:50:05.091Z,70.60
2018-07-14T23:52:34.580Z,71.70
2018-07-14T23:55:03.890Z,71.40
2018-07-14T23:57:33.086Z,71.80
